• Join FlightAware (Why Join?)
  • Login
  • US Flag 
05:35AM EDT


 

Airport Tracker/Info


-or-


 

Live Flight TrackerFlight Track Log ✈ NKS416 ✈ 17-Mar-2014 ✈ KFLL - KIAG

Flight Track Log - Related Links

Times and Time Zones

All times are in EDT time to prevent confusion due to time zone crossing. See the NKS416 flight status page for this flight to view local times or setup timezone preferences in your user account.

Time Position Orientation Groundspeed Altitude Reporting Facility
EDT Latitude Longitude Course Direction KTS MPH feet Rate Location/Type
10:39PM 26.0781 -80.1314 78° East 151 174 1,100  Level Miami Center
10:40PM 26.0906 -80.0672 78° East 255 293 2,000 1,260 Climbing Miami Center
10:41PM 26.1022 -80.0131 77° East 270 311 3,400 2,580 Climbing Miami Center
10:41PM 26.1106 -79.9783 75° East 300 345 4,700 2,460 Climbing Miami Center
10:42PM 26.1389 -79.8900 70° East 316 364 6,700 2,040 Climbing Miami Center
10:43PM 26.1656 -79.8400 59° Northeast 309 356 8,300 2,220 Climbing Miami Center
10:44PM 26.2106 -79.7544 60° Northeast 321 369 10,600 1,920 Climbing Miami Center
10:45PM 26.2733 -79.6392 59° Northeast 386 444 12,200 1,800 Climbing Miami Center
10:46PM 26.3403 -79.5378 54° Northeast 408 470 14,300 1,680 Climbing Miami Center
10:52PM 27.0036 -79.1664 26° Northeast 470 541 24,400 1,560 Climbing FlightAware ADS-B (KMCO)
10:53PM 27.0638 -79.1344 26° Northeast 480 552 25,100 960 Climbing FlightAware ADS-B (KMCO)
10:53PM 27.1901 -79.0867 North 471 542 25,900 900 Climbing FlightAware ADS-B (KMCO)
10:54PM 27.2764 -79.0735 North 478 550 26,500 900 Climbing FlightAware ADS-B (KMCO)
10:55PM 27.3456 -79.0625 North 483 556 27,000 840 Climbing FlightAware ADS-B (KMCO)
10:55PM 27.4338 -79.0487 North 489 563 27,500 720 Climbing FlightAware ADS-B (KMCO)
10:56PM 27.5013 -79.0381 North 495 570 27,900 840 Climbing FlightAware ADS-B (KMCO)
10:56PM 27.5735 -79.0267 North 499 574 28,400 960 Climbing FlightAware ADS-B (KMCO)
10:57PM 27.6284 -79.0179 North 502 578 28,900 1,140 Climbing FlightAware ADS-B (KMCO)
10:58PM 27.7607 -78.9969 North 499 574 30,000 1,500 Climbing FlightAware ADS-B (KMCO)
10:58PM 27.8709 -78.9792 North 484 557 31,400 1,380 Climbing FlightAware ADS-B (KMCO)
10:59PM 27.9619 -78.9647 North 482 555 32,100 1,320 Climbing FlightAware ADS-B (KMCO)
11:00PM 28.0285 -78.9540 North 474 545 33,000 1,680 Climbing FlightAware ADS-B (KMCO)
11:00PM 28.0968 -78.9431 North 466 536 33,800 1,140 Climbing FlightAware ADS-B (KMCO)
11:01PM 28.1608 -78.9329 North 466 536 34,200 780 Climbing FlightAware ADS-B (KMCO)
11:01PM 28.2640 -78.9164 North 466 536 34,900 900 Climbing FlightAware ADS-B (KMCO)
11:02PM 28.3471 -78.9029 North 464 534 35,600 900 Climbing FlightAware ADS-B (KMCO)
11:03PM 28.4148 -78.8920 North 462 532 36,000 840 Climbing FlightAware ADS-B (KMCO)
11:03PM 28.4880 -78.8803 North 460 529 36,500 240 Climbing FlightAware ADS-B (KMCO)
11:06PM 28.8603 -78.8201 North 475 547 37,000 60 Climbing FlightAware ADS-B (KMCO)
11:09PM 29.2870 -78.7505 North 483 556 37,000 -60 Level FlightAware ADS-B (KMCO)
11:10PM 29.3922 -78.7344 North 480 552 36,900 -60 Descending Miami Center
11:11PM 29.5206 -78.7125 North 480 552 36,900  Level Miami Center
11:12PM 29.6561 -78.6897 North 488 562 37,000  Climbing Miami Center
11:13PM 29.7900 -78.6678 North 488 562 37,000  Level Miami Center
11:14PM 29.9239 -78.6456 North 488 562 37,000 -60 Level Miami Center
11:15PM 30.0672 -78.6214 North 482 555 36,900 -120 Descending Miami Center
11:16PM 30.1319 -78.6083 10° North 470 541 36,900  Level Jacksonville Center
11:17PM 30.2753 -78.5875 North 471 542 36,900  Level Jacksonville Center
11:18PM 30.4103 -78.5669 North 484 557 37,000  Climbing Jacksonville Center
11:19PM 30.5450 -78.5417 North 483 556 37,000 -60 Level Jacksonville Center
11:20PM 30.6800 -78.5208 North 476 548 36,900 -60 Descending Jacksonville Center
11:21PM 30.8128 -78.4978 North 476 548 36,900  Level Jacksonville Center
11:22PM 30.9497 -78.4722 North 487 560 37,000  Climbing Jacksonville Center
11:23PM 31.0764 -78.4542 North 487 560 37,000  Level Jacksonville Center
11:24PM 31.2114 -78.4331 North 487 560 37,000 -60 Level Jacksonville Center
11:25PM 31.3461 -78.4097 North 487 560 36,900  Descending Jacksonville Center
11:26PM 31.4850 -78.3811 10° North 487 560 37,000  Climbing Jacksonville Center
11:27PM 31.6181 -78.3625 North 487 560 36,900 -60 Descending Jacksonville Center
11:28PM 31.7569 -78.3386 North 492 566 36,900  Level Jacksonville Center
11:29PM 31.8939 -78.3147 North 492 566 37,000  Climbing Jacksonville Center
11:30PM 32.0286 -78.2908 North 492 566 37,000  Level Jacksonville Center
11:31PM 32.1633 -78.2669 North 492 566 37,000  Level Jacksonville Center
11:32PM 32.3003 -78.2403 North 492 566 37,000  Level Jacksonville Center
11:33PM 32.4578 -78.2125 North 501 577 37,000 -60 Level Jacksonville Center
11:34PM 32.5928 -78.1908 North 501 577 36,900 -60 Descending Jacksonville Center
11:35PM 32.7336 -78.1636 North 501 577 36,900  Level Jacksonville Center
11:36PM 32.8725 -78.1392 North 501 577 37,000  Climbing Jacksonville Center
11:37PM 33.0133 -78.1117 North 501 577 36,900 -60 Descending Jacksonville Center
11:38PM 33.1544 -78.0919 North 501 577 36,900  Level Jacksonville Center
11:39PM 33.3769 -78.0508 North 522 601 37,000  Climbing Washington Center
11:40PM 33.5169 -78.0275 North 522 601 37,000 -60 Level Washington Center
11:41PM 33.6572 -78.0017 North 522 601 36,900 -60 Descending Washington Center
11:42PM 33.7956 -77.9758 North 517 595 36,900  Level Washington Center
11:43PM 33.9275 -77.9544 North 512 589 37,000  Climbing Washington Center
11:44PM 34.0672 -77.9483 North 512 589 37,000  Level Washington Center
11:45PM 34.2050 -77.9450 North 506 582 37,000  Level Washington Center
11:46PM 34.3533 -77.9389 North 505 581 37,000 -60 Level Washington Center
11:47PM 34.4911 -77.9353 North 505 581 36,900  Descending Washington Center
11:53PM 35.2580 -77.9064 North 511 588 37,100  Climbing FlightAware ADS-B
11:54PM 35.4660 -77.8998 North 505 581 37,000 -120 Descending FlightAware ADS-B
11:55PM 35.5702 -77.8963 North 508 585 36,900  Descending FlightAware ADS-B
11:55PM 35.6040 -77.8956 360° North 504 580 37,000 60 Climbing FlightAware ADS-B
11:56PM 35.7517 -77.9133 360° North 492 566 37,000  Level Washington Center
11:57PM 35.8892 -77.9303 354° North 492 566 37,000  Level Washington Center
11:58PM 36.0244 -77.9469 354° North 492 566 37,000 480 Level Washington Center
11:59PM 36.1597 -77.9667 353° North 492 566 38,000 480 Climbing Washington Center
12:00AM 36.2950 -77.9836 354° North 487 560 38,000  Level Washington Center
12:01AM 36.4406 -78.0033 354° North 487 560 38,000  Level Washington Center
12:02AM 36.5758 -78.0206 354° North 482 555 38,000  Level Washington Center
12:03AM 36.7111 -78.0378 354° North 482 555 38,000  Level Washington Center
12:04AM 36.8483 -78.0578 353° North 482 555 38,000  Level Washington Center
12:05AM 36.9836 -78.0750 354° North 482 555 38,000  Level Washington Center
12:11AM 37.7794 -78.1763 354° North 472 543 38,000  Level FlightAware ADS-B (KCHO)
12:12AM 37.8674 -78.1881 354° North 473 544 38,000  Level FlightAware ADS-B (KCHO)
12:13AM 37.9518 -78.1993 354° North 474 545 38,000  Level FlightAware ADS-B (KCHO)
12:13AM 38.0192 -78.2083 354° North 474 545 38,000  Level FlightAware ADS-B (KCHO)
12:14AM 38.0976 -78.2192 354° North 474 545 38,000  Level FlightAware ADS-B (KCHO)
12:14AM 38.1637 -78.2283 354° North 476 548 38,000  Level FlightAware ADS-B (KCHO)
12:15AM 38.3001 -78.2465 354° North 476 548 38,000  Level FlightAware ADS-B (KCHO)
12:16AM 38.4293 -78.2639 354° North 476 548 38,000  Level FlightAware ADS-B (KCHO)
12:17AM 38.4833 -78.2719 354° North 473 544 38,000  Level Cleveland Center
12:17AM 38.5433 -78.2833 352° North 466 536 38,000  Level Washington Center
12:18AM 38.6744 -78.2986 355° North 472 543 38,000  Level Washington Center
12:19AM 38.8075 -78.3197 353° North 472 543 38,000  Level Washington Center
12:26AM 39.6088 -78.4268 354° North 471 542 38,000  Level FlightAware ADS-B (KAPG)
12:27AM 39.8028 -78.4556 354° North 473 544 38,000  Level Cleveland Center
12:28AM 39.9300 -78.4725 354° North 464 534 38,000 -60 Level Cleveland Center
12:29AM 40.0567 -78.4906 354° North 463 533 37,900  Descending Cleveland Center
12:30AM 40.1839 -78.5089 354° North 463 533 38,000  Climbing Cleveland Center
12:31AM 40.3114 -78.5269 354° North 463 533 38,000  Level Cleveland Center
12:32AM 40.4389 -78.5447 354° North 463 533 38,000  Level Cleveland Center
12:33AM 40.5647 -78.5628 354° North 460 529 38,000  Level Cleveland Center
12:34AM 40.6928 -78.5808 354° North 460 529 38,000 -1,560 Level Cleveland Center
12:39AM 41.3818 -78.6820 354° North 432 497 28,100 -1,860 Descending FlightAware ADS-B (CYYZ)
12:40AM 41.4435 -78.6913 354° North 432 497 27,400 -2,100 Descending FlightAware ADS-B (CYYZ)
12:40AM 41.5150 -78.7023 354° North 430 495 26,000 -2,100 Descending FlightAware ADS-B (CYYZ)
12:41AM 41.5709 -78.7105 354° North 418 481 25,100 -1,680 Descending FlightAware ADS-B (CYYZ)
12:43AM 41.8189 -78.7478 354° North 373 429 21,300 -1,680 Descending FlightAware ADS-B (CYYZ)
12:44AM 41.8702 -78.7554 354° North 366 421 20,500 -1,620 Descending FlightAware ADS-B (CYYZ)
12:45AM 42.0026 -78.7754 354° North 343 395 18,200 -1,740 Descending FlightAware ADS-B (CYYZ)
12:46AM 42.0833 -78.7876 354° North 335 386 16,800 -1,740 Descending FlightAware ADS-B (CYYZ)
12:46AM 42.1311 -78.7948 354° North 329 379 16,000 -1,500 Descending FlightAware ADS-B (CYYZ)
12:47AM 42.1766 -78.8019 354° North 324 373 15,300 -1,500 Descending FlightAware ADS-B (CYYZ)
12:47AM 42.2206 -78.8087 354° North 320 368 14,500 -1,500 Descending FlightAware ADS-B (CYYZ)
12:48AM 42.2631 -78.8151 354° North 311 358 13,800 -1,440 Descending FlightAware ADS-B (CYYZ)
12:48AM 42.3058 -78.8215 354° North 306 352 13,100 -1,740 Descending FlightAware ADS-B (CYYZ)
12:49AM 42.3488 -78.8263 359° North 313 360 12,100 -2,160 Descending FlightAware ADS-B (CYYZ)
12:49AM 42.3772 -78.8268 North 321 369 11,300 -1,440 Descending FlightAware ADS-B (CYYZ)
12:50AM 42.4228 -78.8270 North 333 383 10,900 -420 Descending FlightAware ADS-B (CYYZ)
12:50AM 42.4671 -78.8275 North 335 386 10,900  Level FlightAware ADS-B (CYYZ)
12:51AM 42.5141 -78.8281 North 333 383 10,900 -300 Level FlightAware ADS-B (CYYZ)
12:51AM 42.5679 -78.8290 North 314 361 10,600 -960 Descending FlightAware ADS-B (CYYZ)
12:52AM 42.6083 -78.8297 North 291 335 9,900 -1,740 Descending FlightAware ADS-B (CYYZ)
12:52AM 42.6302 -78.8301 359° North 290 334 9,300 -2,160 Descending FlightAware ADS-B (CYYZ)
12:52AM 42.6494 -78.8306 North 288 331 8,800 -1,800 Descending FlightAware ADS-B (CYYZ)
12:53AM 42.6699 -78.8309 North 284 327 8,400 -1,680 Descending FlightAware ADS-B (CYYZ)
12:53AM 42.6885 -78.8310 North 286 329 8,000 -1,620 Descending FlightAware ADS-B (CYYZ)
12:53AM 42.7090 -78.8312 North 285 328 7,600 -1,620 Descending FlightAware ADS-B (CYYZ)
12:53AM 42.7289 -78.8314 North 282 325 7,200 -1,500 Descending FlightAware ADS-B (CYYZ)
12:53AM 42.7350 -78.8315 359° North 282 325 7,100 -1,500 Descending FlightAware ADS-B (CYYZ)
12:54AM 42.7544 -78.8319 359° North 282 325 6,700 -1,440 Descending FlightAware ADS-B (CYYZ)
12:54AM 42.7724 -78.8323 359° North 279 321 6,400 -1,260 Descending FlightAware ADS-B (CYYZ)
12:54AM 42.7913 -78.8328 359° North 277 319 6,100 -1,440 Descending FlightAware ADS-B (CYYZ)
12:54AM 42.8074 -78.8330 359° North 274 315 5,700 -1,440 Descending FlightAware ADS-B (CYYZ)
12:55AM 42.8239 -78.8334 North 271 312 5,500 -1,080 Descending FlightAware ADS-B (CYYZ)
12:55AM 42.8370 -78.8336 North 267 307 5,300 -1,200 Descending FlightAware ADS-B (CYYZ)
12:55AM 42.8609 -78.8339 North 264 304 4,900 -900 Descending FlightAware ADS-B (CYYZ)
12:57AM 43.0228 -78.8368 North 225 259 2,900 -780 Descending FlightAware ADS-B (CYYZ)
12:58AM 43.0423 -78.8371 North 205 236 2,900 -660 Level FlightAware ADS-B (CYYZ)
12:59AM 43.1072 -78.8525 North 191 220 1,800 -600 Descending Cleveland Center
01:00AM 43.1122 -78.9019 278° West 173 199 1,500 -300 Descending Cleveland Center
01:02AM 43.1000 -78.9333 144° Southeast  Level FlightAware Approximate
01:09AM 43.1076 -78.9458 144° Southeast  Level Estimated